createdAt,value
2023-02-16T00:01:04.734Z,36.37
2023-02-16T00:03:32.916Z,35.23
2023-02-16T00:06:01.162Z,38.07
2023-02-16T00:08:28.925Z,35.23
2023-02-16T00:11:14.105Z,46.33
2023-02-16T00:13:47.808Z,32.90
2023-02-16T00:16:17.443Z,33.00
2023-02-16T00:18:45.427Z,31.30
2023-02-16T00:21:13.276Z,35.07
2023-02-16T00:23:41.337Z,50.43
2023-02-16T00:26:13.984Z,32.40
2023-02-16T00:28:45.225Z,32.63
2023-02-16T00:31:18.117Z,35.27
2023-02-16T00:33:46.661Z,34.17
2023-02-16T00:36:15.631Z,32.53
2023-02-16T00:38:43.583Z,32.33
2023-02-16T00:41:35.641Z,32.67
2023-02-16T00:44:07.046Z,32.83
2023-02-16T00:46:34.864Z,33.87
2023-02-16T00:49:03.986Z,37.20
2023-02-16T00:51:32.063Z,30.40
2023-02-16T00:53:59.706Z,35.90
2023-02-16T00:56:27.486Z,32.80
2023-02-16T00:58:55.205Z,35.53
2023-02-16T01:01:25.741Z,31.60
2023-02-16T01:03:53.646Z,30.53
2023-02-16T01:06:41.495Z,31.60
2023-02-16T01:09:31.274Z,35.27
2023-02-16T01:11:59.287Z,30.97
2023-02-16T01:14:27.332Z,33.83
2023-02-16T01:16:56.758Z,34.23
2023-02-16T01:19:24.994Z,32.87
2023-02-16T01:21:52.742Z,35.53
2023-02-16T01:24:20.457Z,34.07
2023-02-16T01:26:50.674Z,33.17
2023-02-16T01:29:19.500Z,40.63
2023-02-16T01:31:50.160Z,34.97
2023-02-16T01:34:19.504Z,36.30
2023-02-16T01:36:48.029Z,38.63
2023-02-16T01:39:17.823Z,36.00
2023-02-16T01:41:55.907Z,35.53
2023-02-16T01:44:29.274Z,34.10
2023-02-16T01:47:03.164Z,33.87
2023-02-16T01:49:33.806Z,35.53
2023-02-16T01:52:04.464Z,34.40
2023-02-16T01:54:35.397Z,34.60
2023-02-16T01:57:05.918Z,32.13
2023-02-16T01:59:41.198Z,33.43
2023-02-16T02:02:15.269Z,32.13
2023-02-16T02:05:05.440Z,31.30
2023-02-16T02:07:38.460Z,33.93
2023-02-16T02:10:08.335Z,34.17
2023-02-16T02:12:38.596Z,35.77
2023-02-16T02:15:06.797Z,35.20
2023-02-16T02:17:35.130Z,34.13
2023-02-16T02:20:10.026Z,33.93
2023-02-16T02:23:28.523Z,32.50
2023-02-16T02:26:17.551Z,31.57
2023-02-16T02:28:52.039Z,32.43
2023-02-16T02:31:26.682Z,32.80
2023-02-16T02:33:59.247Z,32.90
2023-02-16T02:36:31.540Z,39.60
2023-02-16T02:39:05.409Z,33.80
2023-02-16T02:41:56.529Z,36.70
2023-02-16T02:44:28.452Z,33.90
2023-02-16T02:46:56.438Z,34.27
2023-02-16T02:49:24.180Z,34.70
2023-02-16T02:51:52.353Z,33.33
2023-02-16T02:54:47.189Z,34.17
2023-02-16T02:57:35.524Z,35.47
2023-02-16T03:00:24.882Z,33.07
2023-02-16T03:02:55.067Z,35.50
2023-02-16T03:05:24.234Z,33.27
2023-02-16T03:07:56.360Z,32.90
2023-02-16T03:10:44.349Z,33.20
2023-02-16T03:13:15.448Z,37.87
2023-02-16T03:15:46.272Z,35.73
2023-02-16T03:18:33.878Z,35.07
2023-02-16T03:21:20.226Z,31.93
2023-02-16T03:24:07.074Z,36.33
2023-02-16T03:26:53.011Z,36.23
2023-02-16T03:29:22.563Z,34.93
2023-02-16T03:31:52.910Z,36.27
2023-02-16T03:34:21.925Z,32.80
2023-02-16T03:36:51.451Z,33.43
2023-02-16T03:39:19.576Z,38.23
2023-02-16T03:41:48.926Z,32.20
2023-02-16T03:44:16.656Z,35.50
2023-02-16T03:46:44.365Z,33.40
2023-02-16T03:49:13.383Z,32.37
2023-02-16T03:51:41.636Z,31.40
2023-02-16T03:54:09.300Z,38.47
2023-02-16T03:56:37.164Z,33.70
2023-02-16T03:59:05.434Z,34.90
2023-02-16T04:01:33.141Z,30.87
2023-02-16T04:04:00.834Z,33.63
2023-02-16T04:06:30.135Z,33.03
2023-02-16T04:08:57.965Z,29.27
2023-02-16T04:11:43.337Z,30.77
2023-02-16T04:14:10.968Z,30.40
2023-02-16T04:16:38.689Z,32.23
2023-02-16T04:19:07.872Z,32.40
2023-02-16T04:21:36.898Z,35.30
2023-02-16T04:24:05.862Z,31.10
2023-02-16T04:26:33.935Z,31.77
2023-02-16T04:29:01.881Z,33.53
2023-02-16T04:31:29.691Z,32.20
2023-02-16T04:33:58.171Z,30.03
2023-02-16T04:36:25.958Z,28.83
2023-02-16T04:38:55.066Z,36.50
2023-02-16T04:41:23.091Z,32.10
2023-02-16T04:43:50.769Z,32.00
2023-02-16T04:46:19.120Z,36.00
2023-02-16T04:48:47.255Z,33.47
2023-02-16T04:51:15.072Z,30.47
2023-02-16T04:53:42.799Z,25.90
2023-02-16T04:56:12.668Z,30.33
2023-02-16T04:58:40.421Z,30.07
2023-02-16T05:01:08.471Z,28.47
2023-02-16T05:03:36.685Z,33.30
2023-02-16T05:06:04.574Z,31.30
2023-02-16T05:08:32.541Z,30.67
2023-02-16T05:11:18.798Z,30.40
2023-02-16T05:14:05.300Z,32.53
2023-02-16T05:16:32.988Z,32.40
2023-02-16T05:19:00.799Z,28.50
2023-02-16T05:21:36.032Z,31.10
2023-02-16T05:24:06.493Z,32.60
2023-02-16T05:26:35.202Z,31.17
2023-02-16T05:29:04.499Z,30.27
2023-02-16T05:31:32.356Z,34.30
2023-02-16T05:34:00.110Z,29.80
2023-02-16T05:36:27.953Z,33.30
2023-02-16T05:38:55.617Z,32.13
2023-02-16T05:41:25.921Z,30.30
2023-02-16T05:43:54.939Z,33.97
2023-02-16T05:46:24.418Z,31.40
2023-02-16T05:48:52.664Z,33.03
2023-02-16T05:51:20.700Z,29.70
2023-02-16T05:53:48.640Z,30.43
2023-02-16T05:56:16.755Z,33.53
2023-02-16T05:58:44.808Z,33.00
2023-02-16T06:01:13.326Z,33.97
2023-02-16T06:04:05.237Z,35.37
2023-02-16T06:06:33.061Z,37.30
2023-02-16T06:09:01.534Z,33.90
2023-02-16T06:11:38.880Z,38.30
2023-02-16T06:14:08.619Z,34.20
2023-02-16T06:16:37.271Z,33.47
2023-02-16T06:19:06.960Z,30.33
2023-02-16T06:21:34.859Z,38.57
2023-02-16T06:24:03.359Z,30.90
2023-02-16T06:26:31.167Z,31.30
2023-02-16T06:28:58.815Z,32.17
2023-02-16T06:31:26.653Z,36.43
2023-02-16T06:33:54.725Z,30.97
2023-02-16T06:36:24.146Z,31.70
2023-02-16T06:38:53.027Z,29.10
2023-02-16T06:41:32.305Z,32.07
2023-02-16T06:44:00.692Z,31.07
2023-02-16T06:46:28.386Z,31.80
2023-02-16T06:48:56.260Z,32.10
2023-02-16T06:51:25.755Z,32.03
2023-02-16T06:53:53.665Z,41.07
2023-02-16T06:56:21.303Z,32.60
2023-02-16T06:58:52.415Z,30.17
2023-02-16T07:01:23.005Z,33.20
2023-02-16T07:03:51.642Z,36.00
2023-02-16T07:06:19.456Z,31.40
2023-02-16T07:08:48.547Z,31.97
2023-02-16T07:11:17.138Z,31.40
2023-02-16T07:13:45.278Z,33.17
2023-02-16T07:16:13.458Z,35.13
2023-02-16T07:18:41.999Z,34.80
2023-02-16T07:21:10.010Z,31.90
2023-02-16T07:23:37.743Z,33.00
2023-02-16T07:26:07.571Z,31.13
2023-02-16T07:28:35.456Z,34.50
2023-02-16T07:31:07.394Z,30.27
2023-02-16T07:33:35.433Z,31.57
2023-02-16T07:36:03.351Z,33.73
2023-02-16T07:38:31.584Z,29.80
2023-02-16T07:41:01.165Z,33.17
2023-02-16T07:43:30.465Z,33.70
2023-02-16T07:45:58.313Z,33.30
2023-02-16T07:48:26.456Z,31.20
2023-02-16T07:50:54.285Z,35.27
2023-02-16T07:53:22.388Z,34.23
2023-02-16T07:55:50.198Z,35.00
2023-02-16T07:58:27.218Z,35.33
2023-02-16T08:00:57.615Z,33.50
2023-02-16T08:03:25.512Z,33.80
2023-02-16T08:05:53.443Z,34.40
2023-02-16T08:08:21.788Z,40.30
2023-02-16T08:10:49.849Z,35.20
2023-02-16T08:13:17.591Z,36.17
2023-02-16T08:15:45.622Z,33.13
2023-02-16T08:18:15.201Z,33.80
2023-02-16T08:21:01.420Z,38.03
2023-02-16T08:23:31.787Z,35.13
2023-02-16T08:25:59.671Z,31.80
2023-02-16T08:28:28.975Z,36.77
2023-02-16T08:30:57.092Z,34.67
2023-02-16T08:33:27.287Z,35.40
2023-02-16T08:35:55.165Z,40.40
2023-02-16T08:38:23.124Z,38.63
2023-02-16T08:40:50.957Z,36.50
2023-02-16T08:43:19.021Z,42.53
2023-02-16T08:45:47.690Z,38.10
2023-02-16T08:48:16.597Z,38.10
2023-02-16T08:50:53.385Z,40.93
2023-02-16T08:53:21.648Z,37.37
2023-02-16T08:55:52.854Z,39.80
2023-02-16T08:58:20.700Z,39.90
2023-02-16T09:00:49.625Z,37.23
2023-02-16T09:03:18.896Z,35.80
2023-02-16T09:05:48.894Z,34.67
2023-02-16T09:08:16.856Z,35.80
2023-02-16T09:10:44.711Z,38.53
2023-02-16T09:13:14.883Z,34.63
2023-02-16T09:15:43.088Z,36.30
2023-02-16T09:18:12.201Z,41.93
2023-02-16T09:20:41.260Z,36.23
2023-02-16T09:23:12.314Z,43.07
2023-02-16T09:25:41.525Z,45.80
2023-02-16T09:28:09.665Z,39.40
2023-02-16T09:30:39.097Z,40.20
2023-02-16T09:33:07.946Z,42.20
2023-02-16T09:35:35.628Z,37.43
2023-02-16T09:38:03.444Z,48.33
2023-02-16T09:40:32.790Z,40.90
2023-02-16T09:43:04.463Z,41.97
2023-02-16T09:45:35.400Z,41.40
2023-02-16T09:48:03.513Z,39.37
2023-02-16T09:50:52.438Z,54.20
2023-02-16T09:53:25.201Z,35.37
2023-02-16T09:55:58.085Z,38.87
2023-02-16T09:58:31.563Z,40.80
2023-02-16T10:01:03.317Z,42.07
2023-02-16T10:03:40.115Z,45.00
2023-02-16T10:06:17.385Z,43.30
2023-02-16T10:08:47.161Z,44.20
2023-02-16T10:11:44.390Z,41.37
2023-02-16T10:14:17.272Z,42.20
2023-02-16T10:16:46.941Z,43.63
2023-02-16T10:19:19.248Z,40.23
2023-02-16T10:21:49.158Z,43.07
2023-02-16T10:24:17.095Z,41.37
2023-02-16T10:26:47.555Z,47.03
2023-02-16T10:29:16.931Z,42.27
2023-02-16T10:31:49.726Z,44.10
2023-02-16T10:34:22.829Z,43.03
2023-02-16T10:37:09.824Z,43.60
2023-02-16T10:39:41.336Z,43.20
2023-02-16T10:42:16.807Z,42.60
2023-02-16T10:44:47.884Z,45.60
2023-02-16T10:47:23.880Z,44.97
2023-02-16T10:49:52.891Z,48.80
2023-02-16T10:52:20.945Z,43.03
2023-02-16T10:54:48.965Z,41.07
2023-02-16T10:57:23.552Z,41.07
2023-02-16T10:59:52.581Z,48.90
2023-02-16T11:02:21.957Z,46.80
2023-02-16T11:04:52.649Z,44.13
2023-02-16T11:07:22.864Z,46.10
2023-02-16T11:09:53.168Z,48.40
2023-02-16T11:12:30.091Z,45.93
2023-02-16T11:15:00.214Z,44.53
2023-02-16T11:17:28.056Z,43.87
2023-02-16T11:19:59.047Z,43.60
2023-02-16T11:22:30.026Z,45.50
2023-02-16T11:24:59.325Z,42.13
2023-02-16T11:27:30.171Z,46.00
2023-02-16T11:30:13.787Z,47.37
2023-02-16T11:32:42.433Z,47.13
2023-02-16T11:35:10.595Z,50.70
2023-02-16T11:38:01.111Z,42.60
2023-02-16T11:40:30.653Z,44.07
2023-02-16T11:43:01.584Z,42.87
2023-02-16T11:45:31.530Z,47.03
2023-02-16T11:48:01.771Z,42.93
2023-02-16T11:50:30.434Z,47.57
2023-02-16T11:52:59.472Z,43.70
2023-02-16T11:55:32.592Z,46.53
2023-02-16T11:58:15.218Z,45.17
2023-02-16T12:00:47.803Z,47.20
2023-02-16T12:03:22.979Z,48.80
2023-02-16T12:06:02.513Z,48.20
2023-02-16T12:08:45.185Z,47.23
2023-02-16T12:11:20.341Z,49.20
2023-02-16T12:13:51.934Z,50.00
2023-02-16T12:16:25.878Z,46.03
2023-02-16T12:19:01.209Z,53.30
2023-02-16T12:21:34.899Z,41.90
2023-02-16T12:24:09.228Z,45.07
2023-02-16T12:26:41.984Z,44.23
2023-02-16T12:29:27.417Z,48.23
2023-02-16T12:32:07.329Z,45.63
2023-02-16T12:34:42.241Z,42.40
2023-02-16T12:37:15.022Z,42.73
2023-02-16T12:39:47.340Z,49.60
2023-02-16T12:42:26.216Z,39.83
2023-02-16T12:44:55.727Z,39.53
2023-02-16T12:47:30.504Z,42.93
2023-02-16T12:50:01.131Z,44.93
2023-02-16T12:52:35.560Z,39.43
2023-02-16T12:55:11.096Z,40.13
2023-02-16T12:57:43.107Z,45.87
2023-02-16T13:00:17.968Z,47.40
2023-02-16T13:02:51.367Z,48.87
2023-02-16T13:05:21.634Z,44.20
2023-02-16T13:07:51.216Z,39.13
2023-02-16T13:10:21.443Z,43.03
2023-02-16T13:12:51.909Z,49.33
2023-02-16T13:15:21.116Z,41.70
2023-02-16T13:17:51.685Z,46.50
2023-02-16T13:20:20.947Z,46.50
2023-02-16T13:22:57.118Z,41.40
2023-02-16T13:25:40.239Z,40.00
2023-02-16T13:28:16.841Z,38.30
2023-02-16T13:30:58.481Z,38.70
2023-02-16T13:33:42.315Z,40.63
2023-02-16T13:36:25.559Z,35.37
2023-02-16T13:39:05.947Z,41.63
2023-02-16T13:41:41.294Z,41.90
2023-02-16T13:44:12.483Z,46.57
2023-02-16T13:46:41.710Z,48.23
2023-02-16T13:49:28.637Z,44.70
2023-02-16T13:51:56.616Z,42.23
2023-02-16T13:54:27.993Z,41.70
2023-02-16T13:56:56.190Z,43.40
2023-02-16T13:59:57.104Z,41.63
2023-02-16T14:02:58.663Z,47.10
2023-02-16T14:05:29.650Z,56.93
2023-02-16T14:08:10.859Z,40.50
2023-02-16T14:10:57.264Z,44.90
2023-02-16T14:13:28.409Z,38.13
2023-02-16T14:16:00.090Z,37.93
2023-02-16T14:18:32.878Z,36.40
2023-02-16T14:21:02.965Z,45.20
2023-02-16T14:23:34.555Z,39.97
2023-02-16T14:26:03.480Z,39.80
2023-02-16T14:28:50.424Z,43.17
2023-02-16T14:31:22.835Z,50.83
2023-02-16T14:33:56.326Z,38.87
2023-02-16T14:36:27.044Z,42.23
2023-02-16T14:38:58.618Z,42.50
2023-02-16T14:41:27.810Z,39.50
2023-02-16T14:44:13.160Z,45.87
2023-02-16T14:46:47.651Z,45.87
2023-02-16T14:49:26.136Z,42.60
2023-02-16T14:52:20.945Z,44.03
2023-02-16T14:57:44.221Z,35.63
2023-02-16T15:00:14.567Z,55.57
2023-02-16T15:02:43.155Z,38.27
2023-02-16T15:05:18.663Z,45.17
2023-02-16T15:07:50.335Z,49.20
2023-02-16T15:10:21.888Z,43.77
2023-02-16T15:12:51.177Z,45.70
2023-02-16T15:15:20.567Z,44.80
2023-02-16T15:17:49.193Z,46.30
2023-02-16T15:20:21.916Z,49.57
2023-02-16T15:22:50.576Z,39.87
2023-02-16T15:25:22.641Z,37.83
2023-02-16T15:27:59.061Z,40.87
2023-02-16T15:30:28.505Z,38.80
2023-02-16T15:32:58.128Z,33.30
2023-02-16T15:35:29.320Z,38.83
2023-02-16T15:38:01.336Z,35.07
2023-02-16T15:40:33.051Z,37.07
2023-02-16T15:43:06.758Z,46.83
2023-02-16T15:45:38.016Z,38.50
2023-02-16T15:48:15.922Z,37.20
2023-02-16T15:50:44.473Z,36.27
2023-02-16T15:53:13.222Z,33.13
2023-02-16T15:55:45.093Z,42.20
2023-02-16T15:58:14.933Z,34.87
2023-02-16T16:00:45.308Z,41.00
2023-02-16T16:03:15.888Z,42.10
2023-02-16T16:05:59.359Z,39.77
2023-02-16T16:08:29.481Z,37.33
2023-02-16T16:10:57.574Z,45.40
2023-02-16T16:13:28.733Z,36.53
2023-02-16T16:16:01.647Z,38.40
2023-02-16T16:18:53.824Z,42.53
2023-02-16T16:21:24.062Z,35.27
2023-02-16T16:24:09.836Z,38.10
2023-02-16T16:26:52.952Z,35.93
2023-02-16T16:29:32.967Z,34.80
2023-02-16T16:32:01.317Z,35.10
2023-02-16T16:34:34.158Z,35.13
2023-02-16T16:37:03.794Z,33.23
2023-02-16T16:39:32.186Z,34.90
2023-02-16T16:42:24.938Z,37.53
2023-02-16T16:44:58.700Z,34.30
2023-02-16T16:47:27.998Z,36.80
2023-02-16T16:49:56.965Z,40.43
2023-02-16T16:52:36.261Z,38.73
2023-02-16T16:55:19.763Z,43.60
2023-02-16T16:57:50.285Z,34.73
2023-02-16T17:00:19.846Z,35.83
2023-02-16T17:02:48.972Z,40.30
2023-02-16T17:05:17.154Z,39.70
2023-02-16T17:07:49.047Z,42.10
2023-02-16T17:10:17.960Z,37.03
2023-02-16T17:12:46.034Z,35.90
2023-02-16T17:15:26.470Z,41.13
2023-02-16T17:17:54.174Z,47.53
2023-02-16T17:20:22.228Z,41.87
2023-02-16T17:22:50.682Z,40.40
2023-02-16T17:25:18.435Z,42.17
2023-02-16T17:27:46.232Z,52.10
2023-02-16T17:30:14.580Z,38.03
2023-02-16T17:32:43.687Z,37.70
2023-02-16T17:35:11.607Z,39.60
2023-02-16T17:37:39.587Z,45.47
2023-02-16T17:40:11.878Z,41.27
2023-02-16T17:42:39.950Z,39.27
2023-02-16T17:45:07.838Z,42.40
2023-02-16T17:47:35.674Z,39.73
2023-02-16T17:50:05.197Z,40.20
2023-02-16T17:52:33.004Z,45.50
2023-02-16T17:55:00.814Z,45.23
2023-02-16T17:57:29.628Z,51.00
2023-02-16T17:59:57.735Z,49.53
2023-02-16T18:02:25.434Z,38.23
2023-02-16T18:04:54.212Z,44.80
2023-02-16T18:07:23.732Z,46.37
2023-02-16T18:09:51.632Z,87.73
2023-02-16T18:12:19.608Z,42.13
2023-02-16T18:14:47.333Z,41.60
2023-02-16T18:17:15.149Z,61.20
2023-02-16T18:19:43.128Z,43.33
2023-02-16T18:22:10.932Z,42.30
2023-02-16T18:24:39.959Z,45.47
2023-02-16T18:27:08.084Z,54.00
2023-02-16T18:29:35.696Z,54.37
2023-02-16T18:32:04.363Z,39.83
2023-02-16T18:34:33.546Z,44.27
2023-02-16T18:37:01.405Z,54.90
2023-02-16T18:39:29.045Z,40.40
2023-02-16T18:41:58.740Z,39.20
2023-02-16T18:44:26.481Z,44.00
2023-02-16T18:46:54.477Z,44.73
2023-02-16T18:49:22.170Z,36.63
2023-02-16T18:51:49.954Z,44.03
2023-02-16T18:54:17.991Z,45.80
2023-02-16T18:56:47.529Z,37.40
2023-02-16T18:59:16.603Z,39.50
2023-02-16T19:01:45.192Z,38.40
2023-02-16T19:04:13.075Z,39.83
2023-02-16T19:07:02.723Z,39.50
2023-02-16T19:09:30.424Z,40.27
2023-02-16T19:11:58.081Z,46.17
2023-02-16T19:14:27.683Z,39.50
2023-02-16T19:16:55.450Z,37.03
2023-02-16T19:19:23.487Z,36.87
2023-02-16T19:21:51.329Z,37.60
2023-02-16T19:24:19.221Z,40.40
2023-02-16T19:26:46.908Z,40.97
2023-02-16T19:29:14.939Z,40.47
2023-02-16T19:31:44.223Z,42.67
2023-02-16T19:34:12.372Z,42.17
2023-02-16T19:36:40.816Z,40.70
2023-02-16T19:39:08.775Z,45.40
2023-02-16T19:41:37.898Z,38.77
2023-02-16T19:44:06.118Z,37.60
2023-02-16T19:46:34.446Z,41.30
2023-02-16T19:49:03.541Z,39.00
2023-02-16T19:51:31.372Z,36.13
2023-02-16T19:53:59.500Z,36.37
2023-02-16T19:56:28.059Z,37.43
2023-02-16T19:58:57.365Z,39.20
2023-02-16T20:01:27.023Z,38.83
2023-02-16T20:03:55.353Z,37.50
2023-02-16T20:06:25.558Z,37.33
2023-02-16T20:08:53.978Z,41.80
2023-02-16T20:11:22.981Z,38.73
2023-02-16T20:13:50.975Z,41.90
2023-02-16T20:16:19.233Z,44.87
2023-02-16T20:18:47.272Z,41.90
2023-02-16T20:21:15.716Z,40.90
2023-02-16T20:23:44.847Z,41.93
2023-02-16T20:26:14.930Z,39.10
2023-02-16T20:28:43.500Z,37.97
2023-02-16T20:31:12.151Z,36.87
2023-02-16T20:33:40.156Z,35.57
2023-02-16T20:36:07.884Z,38.53
2023-02-16T20:38:35.762Z,46.00
2023-02-16T20:41:05.125Z,37.67
2023-02-16T20:43:33.305Z,39.87
2023-02-16T20:46:01.789Z,40.90
2023-02-16T20:48:29.748Z,39.50
2023-02-16T20:50:58.524Z,41.80
2023-02-16T20:53:26.610Z,44.77
2023-02-16T20:56:01.346Z,49.40
2023-02-16T20:58:30.475Z,50.60
2023-02-16T21:00:59.288Z,50.90
2023-02-16T21:03:27.629Z,50.13
2023-02-16T21:05:55.838Z,52.60
2023-02-16T21:08:23.765Z,49.10
2023-02-16T21:10:51.956Z,56.17
2023-02-16T21:13:19.709Z,59.50
2023-02-16T21:15:48.713Z,49.40
2023-02-16T21:18:16.959Z,60.30
2023-02-16T21:20:45.000Z,56.43
2023-02-16T21:23:13.813Z,57.20
2023-02-16T21:25:41.894Z,61.20
2023-02-16T21:28:09.707Z,53.10
2023-02-16T21:30:37.374Z,57.13
2023-02-16T21:33:06.852Z,52.73
2023-02-16T21:35:34.793Z,57.63
2023-02-16T21:38:02.648Z,51.07
2023-02-16T21:40:48.162Z,52.83
2023-02-16T21:43:15.860Z,47.50
2023-02-16T21:45:43.689Z,49.60
2023-02-16T21:48:30.934Z,53.80
2023-02-16T21:51:02.013Z,50.90
2023-02-16T21:53:30.489Z,49.47
2023-02-16T21:56:15.755Z,45.97
2023-02-16T21:58:43.832Z,46.50
2023-02-16T22:01:12.505Z,45.23
2023-02-16T22:03:41.617Z,43.90
2023-02-16T22:06:09.731Z,46.43
2023-02-16T22:08:38.593Z,48.87
2023-02-16T22:11:07.458Z,46.13
2023-02-16T22:13:35.236Z,46.47
2023-02-16T22:16:03.619Z,45.47
2023-02-16T22:18:31.478Z,46.40
2023-02-16T22:21:04.351Z,49.90
2023-02-16T22:23:31.997Z,49.77
2023-02-16T22:25:59.779Z,49.13
2023-02-16T22:28:27.788Z,45.77
2023-02-16T22:30:55.462Z,44.00
2023-02-16T22:33:23.313Z,45.70
2023-02-16T22:35:51.368Z,42.63
2023-02-16T22:38:20.366Z,44.00
2023-02-16T22:40:48.730Z,48.90
2023-02-16T22:43:16.350Z,45.47
2023-02-16T22:45:44.418Z,49.53
2023-02-16T22:48:12.437Z,48.20
2023-02-16T22:50:40.131Z,50.20
2023-02-16T22:53:07.774Z,51.40
2023-02-16T22:55:37.093Z,45.00
2023-02-16T22:58:05.025Z,45.70
2023-02-16T23:00:32.737Z,50.90
2023-02-16T23:03:01.026Z,50.80
2023-02-16T23:05:30.444Z,47.23
2023-02-16T23:07:59.981Z,48.43
2023-02-16T23:10:28.242Z,53.77
2023-02-16T23:12:57.232Z,48.50
2023-02-16T23:15:25.166Z,47.00
2023-02-16T23:17:54.696Z,50.83
2023-02-16T23:20:22.786Z,50.57
2023-02-16T23:22:50.457Z,48.30
2023-02-16T23:25:33.815Z,51.23
2023-02-16T23:28:03.957Z,47.60
2023-02-16T23:30:32.929Z,49.90
2023-02-16T23:33:00.587Z,46.00
2023-02-16T23:35:28.301Z,45.57
2023-02-16T23:37:55.981Z,42.40
2023-02-16T23:40:24.364Z,48.90
2023-02-16T23:42:51.981Z,48.10
2023-02-16T23:45:21.142Z,51.40
2023-02-16T23:47:48.950Z,46.90
2023-02-16T23:50:16.839Z,52.70
2023-02-16T23:52:44.504Z,52.60
2023-02-16T23:55:12.755Z,48.60
2023-02-16T23:57:40.512Z,48.40
